createdAt,value
2023-03-13T00:01:01.121Z,27.05
2023-03-13T00:03:03.017Z,24.63
2023-03-13T00:05:05.241Z,24.85
2023-03-13T00:07:07.416Z,24.35
2023-03-13T00:09:12.016Z,27.08
2023-03-13T00:11:15.303Z,32.55
2023-03-13T00:13:17.138Z,54.80
2023-03-13T00:15:19.029Z,78.88
2023-03-13T00:17:20.901Z,45.67
2023-03-13T00:19:22.725Z,28.63
2023-03-13T00:21:26.639Z,26.92
2023-03-13T00:23:29.486Z,23.08
2023-03-13T00:25:31.491Z,18.08
2023-03-13T00:29:36.364Z,12.55
2023-03-13T00:33:44.050Z,12.15
2023-03-13T00:35:45.896Z,9.68
2023-03-13T00:39:49.605Z,7.25
2023-03-13T00:41:51.566Z,7.47
2023-03-13T00:45:55.570Z,8.00
2023-03-13T00:47:57.427Z,6.97
2023-03-13T00:49:59.282Z,7.00
2023-03-13T00:52:01.240Z,6.88
2023-03-13T00:56:14.935Z,7.60
2023-03-13T00:58:16.834Z,7.32
2023-03-13T01:02:20.808Z,8.18
2023-03-13T01:04:22.928Z,8.23
2023-03-13T01:06:28.745Z,9.10
2023-03-13T01:08:31.257Z,21.42
2023-03-13T01:10:33.177Z,19.65
2023-03-13T01:14:36.982Z,25.67
2023-03-13T01:16:40.008Z,21.27
2023-03-13T01:18:47.292Z,21.52
2023-03-13T01:20:49.124Z,21.17
2023-03-13T01:22:50.981Z,21.33
2023-03-13T01:24:53.987Z,15.77
2023-03-13T01:26:55.873Z,13.43
2023-03-13T01:28:58.059Z,12.50
2023-03-13T01:31:00.534Z,6.93
2023-03-13T01:33:02.675Z,7.45
2023-03-13T01:35:04.758Z,7.65
2023-03-13T01:37:06.604Z,7.70
2023-03-13T01:39:08.489Z,6.63
2023-03-13T01:41:12.457Z,6.35
2023-03-13T01:43:27.447Z,6.35
2023-03-13T01:45:57.839Z,6.50
2023-03-13T01:47:59.843Z,6.13
2023-03-13T01:52:03.995Z,6.90
2023-03-13T01:56:12.080Z,5.88
2023-03-13T01:58:14.012Z,6.20
2023-03-13T02:02:21.853Z,6.30
2023-03-13T02:04:24.805Z,5.75
2023-03-13T02:06:32.033Z,5.93
2023-03-13T02:08:39.838Z,5.90
2023-03-13T02:10:53.598Z,6.53
2023-03-13T02:12:56.199Z,6.38
2023-03-13T02:15:00.704Z,6.65
2023-03-13T02:17:04.221Z,6.00
2023-03-13T02:19:35.010Z,5.68
2023-03-13T02:21:50.183Z,6.05
2023-03-13T02:24:24.735Z,6.00
2023-03-13T02:26:26.778Z,6.68
2023-03-13T02:30:36.074Z,6.78
2023-03-13T02:32:38.831Z,5.53
2023-03-13T02:34:43.855Z,6.03
2023-03-13T02:36:46.372Z,6.03
2023-03-13T02:38:55.274Z,7.40
2023-03-13T02:41:00.129Z,7.93
2023-03-13T02:43:08.697Z,8.15
2023-03-13T02:45:13.955Z,16.67
2023-03-13T02:47:21.383Z,18.23
2023-03-13T02:49:29.491Z,23.10
2023-03-13T02:51:39.000Z,24.02
2023-03-13T02:53:41.865Z,27.20
2023-03-13T02:55:43.812Z,20.35
2023-03-13T02:59:47.546Z,25.13
2023-03-13T03:03:55.062Z,27.50
2023-03-13T03:05:56.932Z,39.05
2023-03-13T03:07:58.767Z,47.03
2023-03-13T03:10:00.807Z,43.35
2023-03-13T03:12:02.715Z,35.88
2023-03-13T03:16:09.316Z,22.27
2023-03-13T03:18:11.271Z,16.75
2023-03-13T03:22:14.877Z,12.80
2023-03-13T03:24:16.707Z,13.80
2023-03-13T03:26:18.955Z,13.85
2023-03-13T03:28:20.831Z,12.05
2023-03-13T03:32:25.025Z,10.70
2023-03-13T03:34:26.978Z,9.20
2023-03-13T03:38:31.158Z,11.32
2023-03-13T03:40:33.471Z,10.70
2023-03-13T03:42:35.324Z,12.60
2023-03-13T03:44:37.185Z,9.80
2023-03-13T03:46:39.152Z,8.75
2023-03-13T03:50:43.102Z,9.57
2023-03-13T03:52:44.982Z,10.27
2023-03-13T03:56:48.564Z,10.02
2023-03-13T04:00:52.340Z,13.40
2023-03-13T04:02:56.275Z,12.00
2023-03-13T04:04:58.232Z,11.88
2023-03-13T04:09:01.860Z,14.40
2023-03-13T04:13:05.702Z,13.32
2023-03-13T04:15:08.231Z,10.63
2023-03-13T04:17:10.168Z,10.32
2023-03-13T04:21:13.807Z,12.52
2023-03-13T04:23:15.718Z,11.63
2023-03-13T04:25:17.988Z,15.75
2023-03-13T04:27:19.891Z,14.48
2023-03-13T04:31:23.632Z,10.98
2023-03-13T04:35:27.349Z,14.52
2023-03-13T04:39:32.975Z,12.82
2023-03-13T04:41:35.034Z,11.02
2023-03-13T04:45:38.636Z,9.43
2023-03-13T04:47:40.651Z,10.05
2023-03-13T04:49:43.740Z,9.25
2023-03-13T04:51:46.640Z,9.15
2023-03-13T04:53:48.557Z,7.88
2023-03-13T04:57:52.117Z,8.25
2023-03-13T04:59:54.266Z,9.35
2023-03-13T05:01:56.120Z,10.35
2023-03-13T05:03:57.966Z,9.88
2023-03-13T05:05:59.871Z,9.15
2023-03-13T05:10:04.087Z,10.27
2023-03-13T05:12:06.324Z,11.40
2023-03-13T05:14:11.067Z,10.45
2023-03-13T05:16:13.006Z,10.88
2023-03-13T05:20:16.776Z,11.52
2023-03-13T05:24:20.490Z,10.02
2023-03-13T05:28:24.324Z,10.30
2023-03-13T05:30:26.989Z,9.95
2023-03-13T05:32:28.872Z,10.70
2023-03-13T05:36:32.640Z,10.70
2023-03-13T05:40:36.319Z,11.23
2023-03-13T05:42:38.381Z,12.85
2023-03-13T05:44:40.205Z,11.65
2023-03-13T05:46:44.269Z,10.90
2023-03-13T05:48:47.002Z,10.18
2023-03-13T05:50:48.866Z,10.13
2023-03-13T05:52:50.938Z,13.25
2023-03-13T05:56:54.613Z,8.90
2023-03-13T05:58:56.529Z,8.20
2023-03-13T06:00:58.381Z,7.13
2023-03-13T06:03:01.497Z,7.25
2023-03-13T06:05:03.732Z,7.50
2023-03-13T06:07:05.792Z,7.22
2023-03-13T06:11:09.507Z,6.85
2023-03-13T06:15:22.787Z,8.10
2023-03-13T06:17:25.621Z,7.93
2023-03-13T06:19:27.480Z,7.35
2023-03-13T06:21:29.591Z,7.60
2023-03-13T06:23:31.668Z,6.65
2023-03-13T06:27:36.484Z,7.45
2023-03-13T06:29:38.351Z,6.22
2023-03-13T06:31:40.398Z,7.35
2023-03-13T06:33:42.405Z,7.22
2023-03-13T06:35:55.757Z,6.68
2023-03-13T06:37:58.384Z,7.35
2023-03-13T06:40:00.213Z,6.80
2023-03-13T06:42:02.189Z,6.40
2023-03-13T06:46:06.996Z,9.23
2023-03-13T06:48:08.858Z,8.18
2023-03-13T06:50:11.305Z,11.80
2023-03-13T06:52:13.140Z,19.10
2023-03-13T06:54:15.058Z,10.20
2023-03-13T06:58:31.406Z,10.10
2023-03-13T07:00:34.602Z,14.68
2023-03-13T07:02:36.543Z,6.82
2023-03-13T07:04:38.858Z,6.13
2023-03-13T07:06:40.813Z,6.93
2023-03-13T07:08:44.249Z,4.40
2023-03-13T07:10:48.630Z,4.13
2023-03-13T07:12:50.505Z,4.60
2023-03-13T07:14:52.375Z,5.80
2023-03-13T07:16:54.379Z,4.78
2023-03-13T07:18:56.341Z,4.97
2023-03-13T07:21:00.244Z,2.22
2023-03-13T07:23:02.166Z,3.05
2023-03-13T07:25:05.604Z,2.40
2023-03-13T07:27:08.245Z,5.00
2023-03-13T07:29:10.582Z,3.20
2023-03-13T07:31:18.017Z,3.45
2023-03-13T07:33:20.197Z,3.58
2023-03-13T07:35:22.059Z,3.22
2023-03-13T07:37:23.894Z,3.72
2023-03-13T07:39:25.765Z,3.00
2023-03-13T07:41:27.690Z,3.22
2023-03-13T07:43:31.400Z,2.78
2023-03-13T07:45:33.281Z,3.00
2023-03-13T07:47:35.780Z,3.67
2023-03-13T07:49:42.105Z,3.45
2023-03-13T07:51:44.770Z,3.25
2023-03-13T07:53:50.545Z,5.18
2023-03-13T07:56:00.299Z,3.90
2023-03-13T07:58:02.211Z,3.63
2023-03-13T08:00:05.964Z,3.08
2023-03-13T08:02:11.644Z,3.00
2023-03-13T08:04:14.498Z,2.67
2023-03-13T08:06:21.450Z,4.00
2023-03-13T08:08:23.479Z,3.95
2023-03-13T08:12:27.069Z,4.03
2023-03-13T08:14:28.939Z,3.25
2023-03-13T08:16:34.494Z,2.75
2023-03-13T08:18:38.348Z,3.03
2023-03-13T08:20:40.206Z,3.25
2023-03-13T08:22:42.121Z,3.90
2023-03-13T08:24:43.975Z,5.95
2023-03-13T08:26:45.833Z,3.45
2023-03-13T08:28:51.781Z,3.97
2023-03-13T08:30:53.640Z,2.90
2023-03-13T08:32:55.503Z,3.40
2023-03-13T08:34:57.358Z,3.25
2023-03-13T08:36:59.203Z,5.45
2023-03-13T08:39:05.043Z,3.30
2023-03-13T08:41:06.934Z,3.60
2023-03-13T08:43:08.764Z,3.85
2023-03-13T08:45:10.915Z,4.07
2023-03-13T08:47:12.771Z,5.43
2023-03-13T08:49:17.500Z,3.97
2023-03-13T08:51:21.449Z,3.67
2023-03-13T08:53:23.306Z,4.88
2023-03-13T08:55:26.521Z,3.30
2023-03-13T08:57:28.546Z,4.07
2023-03-13T08:59:30.516Z,3.50
2023-03-13T09:01:34.477Z,3.22
2023-03-13T09:03:36.779Z,3.58
2023-03-13T09:05:54.931Z,4.50
2023-03-13T09:07:57.738Z,3.03
2023-03-13T09:09:59.610Z,5.07
2023-03-13T09:12:01.517Z,9.43
2023-03-13T09:14:03.592Z,6.00
2023-03-13T09:18:15.138Z,4.05
2023-03-13T09:22:20.888Z,4.60
2023-03-13T09:24:22.760Z,3.85
2023-03-13T09:26:25.212Z,3.08
2023-03-13T09:28:27.990Z,3.63
2023-03-13T09:30:29.856Z,3.75
2023-03-13T09:32:31.822Z,3.67
2023-03-13T09:34:33.806Z,4.88
2023-03-13T09:36:35.897Z,5.10
2023-03-13T09:40:56.544Z,2.72
2023-03-13T09:43:05.510Z,2.40
2023-03-13T09:45:13.008Z,3.03
2023-03-13T09:47:25.785Z,2.63
2023-03-13T09:49:45.431Z,2.35
2023-03-13T09:51:53.482Z,2.92
2023-03-13T09:53:58.478Z,3.03
2023-03-13T09:56:03.554Z,2.50
2023-03-13T09:58:24.532Z,2.75
2023-03-13T10:00:31.074Z,4.97
2023-03-13T10:02:34.280Z,2.78
2023-03-13T10:04:44.414Z,2.58
2023-03-13T10:06:48.897Z,3.38
2023-03-13T10:08:52.793Z,3.28
2023-03-13T10:11:03.455Z,3.15
2023-03-13T10:13:18.263Z,3.20
2023-03-13T10:15:55.703Z,2.90
2023-03-13T10:17:59.069Z,3.35
2023-03-13T10:20:23.240Z,3.05
2023-03-13T10:22:30.058Z,2.55
2023-03-13T10:24:57.499Z,3.55
2023-03-13T10:26:59.408Z,3.38
2023-03-13T10:29:22.853Z,2.55
2023-03-13T10:31:33.670Z,3.05
2023-03-13T10:33:38.247Z,2.75
2023-03-13T10:35:42.971Z,2.95
2023-03-13T10:37:44.956Z,2.60
2023-03-13T10:39:46.815Z,3.15
2023-03-13T10:41:49.811Z,3.63
2023-03-13T10:43:54.638Z,5.10
2023-03-13T10:45:56.740Z,2.85
2023-03-13T10:50:04.976Z,2.40
2023-03-13T10:52:15.248Z,3.65
2023-03-13T10:54:46.405Z,7.93
2023-03-13T10:56:48.649Z,7.22
2023-03-13T10:58:53.242Z,4.82
2023-03-13T11:01:15.122Z,3.47
2023-03-13T11:03:22.034Z,5.40
2023-03-13T11:05:24.556Z,3.13
2023-03-13T11:07:36.143Z,2.85
2023-03-13T11:09:38.050Z,3.88
2023-03-13T11:12:02.446Z,4.82
2023-03-13T11:14:14.936Z,5.75
2023-03-13T11:16:24.282Z,3.45
2023-03-13T11:18:33.994Z,3.30
2023-03-13T11:20:38.675Z,3.00
2023-03-13T11:23:00.408Z,2.95
2023-03-13T11:25:20.866Z,2.65
2023-03-13T11:27:44.191Z,2.50
2023-03-13T11:30:25.199Z,2.67
2023-03-13T11:32:43.428Z,2.58
2023-03-13T11:34:53.436Z,2.50
2023-03-13T11:37:22.736Z,4.40
2023-03-13T11:39:49.122Z,4.18
2023-03-13T11:42:09.413Z,2.85
2023-03-13T11:44:23.091Z,3.13
2023-03-13T11:46:51.449Z,2.58
2023-03-13T11:48:56.041Z,3.33
2023-03-13T11:51:20.991Z,3.90
2023-03-13T11:53:28.763Z,2.45
2023-03-13T11:55:49.011Z,2.38
2023-03-13T11:58:06.125Z,3.40
2023-03-13T12:00:08.072Z,3.88
2023-03-13T12:02:23.355Z,3.75
2023-03-13T12:04:40.021Z,3.35
2023-03-13T12:06:52.232Z,3.13
2023-03-13T12:09:16.667Z,3.05
2023-03-13T12:11:27.468Z,3.90
2023-03-13T12:13:42.055Z,5.93
2023-03-13T12:15:51.904Z,2.42
2023-03-13T12:18:06.013Z,4.50
2023-03-13T12:20:16.924Z,4.97
2023-03-13T12:23:00.991Z,3.83
2023-03-13T12:25:14.366Z,9.10
2023-03-13T12:27:24.749Z,5.13
2023-03-13T12:29:50.943Z,5.70
2023-03-13T12:32:02.488Z,6.90
2023-03-13T12:34:27.491Z,5.28
2023-03-13T12:36:41.002Z,2.35
2023-03-13T12:38:46.856Z,2.60
2023-03-13T12:41:11.079Z,3.15
2023-03-13T12:43:40.227Z,3.10
2023-03-13T12:46:26.566Z,3.67
2023-03-13T12:48:37.310Z,4.43
2023-03-13T12:51:16.247Z,3.05
2023-03-13T12:53:45.220Z,6.93
2023-03-13T12:56:26.256Z,3.65
2023-03-13T12:58:48.094Z,3.92
2023-03-13T13:00:51.538Z,4.10
2023-03-13T13:03:38.171Z,5.63
2023-03-13T13:05:40.093Z,3.63
2023-03-13T13:07:54.556Z,4.90
2023-03-13T13:10:11.582Z,6.55
2023-03-13T13:12:16.570Z,5.55
2023-03-13T13:14:19.203Z,5.95
2023-03-13T13:16:23.858Z,5.38
2023-03-13T13:18:33.496Z,8.45
2023-03-13T13:20:45.144Z,6.20
2023-03-13T13:22:48.960Z,7.50
2023-03-13T13:24:53.465Z,6.20
2023-03-13T13:26:55.373Z,2.72
2023-03-13T13:28:59.756Z,3.33
2023-03-13T13:31:02.301Z,6.18
2023-03-13T13:33:20.282Z,6.65
2023-03-13T13:35:42.394Z,7.40
2023-03-13T13:37:44.857Z,9.45
2023-03-13T13:39:54.458Z,5.30
2023-03-13T13:41:57.874Z,3.85
2023-03-13T13:44:21.979Z,24.08
2023-03-13T13:46:33.689Z,10.90
2023-03-13T13:48:40.092Z,13.13
2023-03-13T13:51:18.781Z,9.52
2023-03-13T13:53:34.783Z,4.20
2023-03-13T13:55:39.745Z,3.03
2023-03-13T13:57:43.705Z,4.63
2023-03-13T14:00:06.464Z,3.80
2023-03-13T14:02:10.250Z,2.88
2023-03-13T14:04:33.520Z,3.45
2023-03-13T14:06:39.026Z,4.70
2023-03-13T14:08:45.058Z,4.95
2023-03-13T14:11:03.600Z,7.70
2023-03-13T14:13:17.697Z,4.00
2023-03-13T14:15:24.197Z,4.30
2023-03-13T14:17:26.138Z,4.53
2023-03-13T14:19:38.015Z,9.52
2023-03-13T14:21:40.746Z,5.53
2023-03-13T14:23:45.747Z,12.88
2023-03-13T14:25:52.075Z,13.23
2023-03-13T14:27:55.888Z,5.30
2023-03-13T14:30:05.628Z,7.03
2023-03-13T14:32:07.883Z,7.70
2023-03-13T14:34:12.828Z,5.32
2023-03-13T14:36:14.709Z,7.28
2023-03-13T14:38:30.016Z,6.30
2023-03-13T14:40:36.955Z,4.95
2023-03-13T14:42:46.946Z,4.13
2023-03-13T14:44:50.367Z,3.70
2023-03-13T14:46:58.138Z,4.30
2023-03-13T14:49:21.247Z,3.97
2023-03-13T14:51:28.377Z,4.35
2023-03-13T14:53:30.679Z,5.53
2023-03-13T14:55:35.558Z,5.72
2023-03-13T14:57:54.031Z,5.57
2023-03-13T15:00:16.519Z,4.75
2023-03-13T15:04:50.449Z,6.18
2023-03-13T15:07:03.304Z,7.65
2023-03-13T15:09:10.907Z,8.25
2023-03-13T15:11:19.946Z,8.68
2023-03-13T15:13:25.876Z,7.18
2023-03-13T15:15:27.749Z,6.00
2023-03-13T15:17:29.858Z,6.53
2023-03-13T15:21:35.055Z,7.78
2023-03-13T15:23:36.895Z,7.18
2023-03-13T15:25:41.031Z,6.00
2023-03-13T15:27:42.941Z,6.15
2023-03-13T15:29:45.832Z,8.45
2023-03-13T15:31:47.780Z,8.38
2023-03-13T15:33:54.709Z,9.20
2023-03-13T15:35:57.312Z,9.73
2023-03-13T15:38:01.187Z,9.57
2023-03-13T15:40:07.886Z,9.30
2023-03-13T15:42:09.861Z,9.23
2023-03-13T15:44:11.767Z,11.60
2023-03-13T15:46:14.957Z,11.93
2023-03-13T15:48:19.751Z,10.80
2023-03-13T15:50:29.840Z,12.18
2023-03-13T15:52:32.438Z,10.60
2023-03-13T15:54:34.295Z,10.85
2023-03-13T15:56:38.059Z,10.68
2023-03-13T15:58:39.898Z,10.55
2023-03-13T16:00:42.997Z,10.57
2023-03-13T16:02:44.833Z,9.05
2023-03-13T16:04:46.922Z,8.32
2023-03-13T16:08:50.524Z,5.88
2023-03-13T16:10:52.958Z,8.07
2023-03-13T16:12:55.138Z,6.00
2023-03-13T16:14:56.960Z,6.18
2023-03-13T16:16:59.295Z,6.70
2023-03-13T16:19:04.195Z,7.75
2023-03-13T16:21:08.583Z,7.72
2023-03-13T16:23:10.442Z,9.40
2023-03-13T16:25:13.162Z,7.45
2023-03-13T16:27:17.265Z,8.13
2023-03-13T16:29:19.186Z,8.43
2023-03-13T16:31:22.792Z,10.32
2023-03-13T16:33:24.672Z,9.65
2023-03-13T16:35:28.299Z,10.50
2023-03-13T16:37:30.205Z,9.77
2023-03-13T16:39:32.171Z,10.20
2023-03-13T16:41:34.000Z,12.02
2023-03-13T16:43:35.850Z,9.07
2023-03-13T16:45:37.721Z,12.85
2023-03-13T16:47:39.646Z,14.55
2023-03-13T16:49:41.523Z,14.45
2023-03-13T16:51:43.408Z,14.70
2023-03-13T16:53:46.911Z,11.82
2023-03-13T16:55:50.328Z,11.77
2023-03-13T16:57:54.936Z,8.88
2023-03-13T16:59:56.808Z,8.52
2023-03-13T17:01:58.640Z,8.48
2023-03-13T17:04:00.566Z,8.10
2023-03-13T17:06:02.573Z,6.93
2023-03-13T17:10:33.435Z,7.30
2023-03-13T17:12:35.365Z,8.73
2023-03-13T17:14:37.351Z,10.20
2023-03-13T17:16:42.668Z,10.90
2023-03-13T17:18:46.647Z,11.48
2023-03-13T17:20:48.856Z,11.10
2023-03-13T17:22:51.084Z,10.55
2023-03-13T17:24:52.942Z,9.98
2023-03-13T17:26:54.919Z,9.05
2023-03-13T17:30:59.102Z,8.93
2023-03-13T17:33:01.218Z,8.48
2023-03-13T17:37:16.945Z,7.43
2023-03-13T17:39:18.834Z,7.32
2023-03-13T17:41:26.206Z,6.93
2023-03-13T17:43:28.041Z,5.93
2023-03-13T17:45:30.965Z,6.78
2023-03-13T17:47:32.982Z,7.30
2023-03-13T17:51:36.820Z,7.63
2023-03-13T17:55:40.413Z,8.13
2023-03-13T17:57:43.929Z,8.25
2023-03-13T17:59:47.243Z,8.00
2023-03-13T18:01:49.246Z,8.35
2023-03-13T18:05:53.058Z,9.10
2023-03-13T18:07:56.286Z,8.73
2023-03-13T18:09:58.191Z,8.45
2023-03-13T18:12:00.061Z,9.35
2023-03-13T18:14:03.965Z,7.72
2023-03-13T18:16:37.686Z,6.18
2023-03-13T18:18:39.567Z,5.82
2023-03-13T18:20:41.528Z,6.13
2023-03-13T18:24:45.914Z,6.00
2023-03-13T18:26:48.809Z,6.55
2023-03-13T18:28:52.507Z,5.82
2023-03-13T18:30:54.372Z,6.57
2023-03-13T18:32:56.888Z,5.72
2023-03-13T18:34:58.724Z,6.40
2023-03-13T18:37:03.931Z,7.05
2023-03-13T18:39:06.360Z,6.40
2023-03-13T18:41:10.092Z,6.85
2023-03-13T18:43:12.711Z,6.47
2023-03-13T18:45:20.485Z,6.25
2023-03-13T18:47:25.074Z,7.43
2023-03-13T18:49:27.248Z,6.53
2023-03-13T18:51:30.798Z,7.07
2023-03-13T18:53:32.731Z,8.02
2023-03-13T18:55:34.638Z,6.10
2023-03-13T18:57:36.642Z,6.75
2023-03-13T19:01:40.635Z,7.03
2023-03-13T19:03:42.916Z,6.10
2023-03-13T19:05:44.777Z,7.30
2023-03-13T19:07:50.540Z,7.47
2023-03-13T19:09:53.615Z,8.00
2023-03-13T19:11:55.469Z,7.55
2023-03-13T19:13:57.671Z,6.60
2023-03-13T19:15:59.539Z,7.13
2023-03-13T19:18:03.352Z,6.55
2023-03-13T19:20:06.122Z,6.78
2023-03-13T19:22:13.027Z,8.10
2023-03-13T19:24:15.196Z,8.02
2023-03-13T19:26:30.708Z,8.63
2023-03-13T19:28:32.709Z,9.57
2023-03-13T19:32:39.348Z,8.70
2023-03-13T19:34:41.388Z,9.57
2023-03-13T19:38:49.521Z,8.88
2023-03-13T19:40:51.618Z,9.93
2023-03-13T19:44:55.198Z,12.27
2023-03-13T19:46:57.449Z,12.18
2023-03-13T19:49:01.698Z,11.80
2023-03-13T19:51:03.667Z,12.25
2023-03-13T19:55:07.865Z,11.43
2023-03-13T19:57:11.260Z,11.95
2023-03-13T19:59:20.596Z,13.32
2023-03-13T20:01:22.646Z,13.75
2023-03-13T20:05:29.340Z,11.43
2023-03-13T20:07:32.547Z,10.80
2023-03-13T20:09:35.657Z,11.60
2023-03-13T20:11:38.854Z,11.70
2023-03-13T20:13:41.289Z,11.63
2023-03-13T20:15:43.206Z,10.32
2023-03-13T20:17:45.101Z,10.20
2023-03-13T20:19:47.096Z,10.77
2023-03-13T20:23:50.943Z,9.45
2023-03-13T20:25:52.935Z,9.98
2023-03-13T20:29:57.146Z,9.90
2023-03-13T20:32:04.596Z,10.05
2023-03-13T20:34:06.468Z,10.82
2023-03-13T20:36:10.852Z,11.15
2023-03-13T20:38:12.761Z,14.82
2023-03-13T20:40:14.759Z,11.55
2023-03-13T20:44:18.510Z,10.30
2023-03-13T20:46:20.757Z,11.00
2023-03-13T20:48:23.098Z,12.20
2023-03-13T20:50:25.096Z,12.30
2023-03-13T20:54:28.904Z,10.85
2023-03-13T20:58:32.589Z,13.13
2023-03-13T21:02:36.382Z,9.60
2023-03-13T21:06:40.242Z,10.77
2023-03-13T21:08:42.530Z,9.98
2023-03-13T21:10:44.379Z,9.85
2023-03-13T21:12:46.481Z,11.00
2023-03-13T21:14:49.312Z,10.55
2023-03-13T21:16:51.174Z,10.52
2023-03-13T21:18:53.389Z,9.68
2023-03-13T21:20:55.417Z,9.98
2023-03-13T21:25:01.183Z,9.80
2023-03-13T21:27:03.121Z,9.10
2023-03-13T21:31:11.727Z,12.52
2023-03-13T21:33:13.754Z,10.63
2023-03-13T21:37:18.578Z,9.90
2023-03-13T21:41:22.867Z,8.50
2023-03-13T21:43:28.048Z,8.02
2023-03-13T21:45:29.993Z,8.27
2023-03-13T21:47:36.716Z,8.82
2023-03-13T21:49:38.734Z,8.93
2023-03-13T21:51:41.161Z,7.05
2023-03-13T21:53:44.543Z,10.52
2023-03-13T21:55:50.070Z,10.27
2023-03-13T21:57:52.061Z,9.38
2023-03-13T22:01:55.728Z,9.02
2023-03-13T22:03:57.714Z,8.55
2023-03-13T22:08:01.287Z,8.13
2023-03-13T22:10:03.329Z,7.25
2023-03-13T22:14:07.054Z,8.43
2023-03-13T22:16:10.531Z,7.65
2023-03-13T22:18:16.286Z,8.50
2023-03-13T22:20:18.298Z,9.20
2023-03-13T22:24:24.027Z,10.15
2023-03-13T22:26:25.883Z,8.20
2023-03-13T22:28:28.218Z,10.02
2023-03-13T22:30:30.065Z,8.95
2023-03-13T22:32:32.035Z,7.38
2023-03-13T22:36:35.662Z,8.23
2023-03-13T22:38:39.122Z,8.88
2023-03-13T22:40:40.996Z,8.55
2023-03-13T22:42:42.867Z,8.52
2023-03-13T22:44:44.771Z,9.35
2023-03-13T22:46:46.653Z,8.80
2023-03-13T22:48:48.517Z,9.43
2023-03-13T22:51:04.983Z,9.80
2023-03-13T22:53:07.984Z,9.00
2023-03-13T22:55:10.087Z,9.38
2023-03-13T22:57:12.550Z,9.63
2023-03-13T22:59:14.373Z,8.77
2023-03-13T23:01:18.256Z,10.57
2023-03-13T23:03:20.196Z,10.45
2023-03-13T23:05:22.119Z,10.25
2023-03-13T23:09:33.162Z,8.40
2023-03-13T23:11:35.212Z,8.32
2023-03-13T23:13:37.265Z,7.78
2023-03-13T23:17:57.929Z,8.13
2023-03-13T23:22:07.780Z,8.13
2023-03-13T23:26:13.698Z,8.20
2023-03-13T23:28:15.607Z,8.35
2023-03-13T23:32:19.980Z,7.15
2023-03-13T23:34:22.167Z,8.10
2023-03-13T23:36:24.028Z,8.55
2023-03-13T23:38:25.896Z,7.47
2023-03-13T23:40:28.338Z,8.43
2023-03-13T23:42:30.881Z,7.68
2023-03-13T23:44:32.792Z,7.93
2023-03-13T23:48:36.466Z,7.25
2023-03-13T23:52:40.749Z,7.47
2023-03-13T23:54:42.633Z,7.13
2023-03-13T23:58:46.280Z,8.85
